createdAt,value
2019-03-25T00:03:27.737Z,6.94
2019-03-25T00:08:31.643Z,7.15
2019-03-25T00:13:35.443Z,7.41
2019-03-25T00:18:39.460Z,7.28
2019-03-25T00:23:43.554Z,7.26
2019-03-25T00:28:47.329Z,7.12
2019-03-25T00:33:51.096Z,7.40
2019-03-25T00:38:54.880Z,7.24
2019-03-25T00:43:58.713Z,6.89
2019-03-25T00:49:02.486Z,7.03
2019-03-25T00:54:06.275Z,7.30
2019-03-25T00:59:10.042Z,7.33
2019-03-25T01:04:14.833Z,6.96
2019-03-25T01:09:18.627Z,6.70
2019-03-25T01:14:22.532Z,6.70
2019-03-25T01:19:26.287Z,6.64
2019-03-25T01:24:30.098Z,6.44
2019-03-25T01:29:33.967Z,6.60
2019-03-25T01:34:37.937Z,6.71
2019-03-25T01:39:41.684Z,6.65
2019-03-25T01:44:45.485Z,6.60
2019-03-25T01:49:49.288Z,6.46
2019-03-25T01:54:53.113Z,6.49
2019-03-25T01:59:57.118Z,6.46
2019-03-25T02:05:00.903Z,6.50
2019-03-25T02:10:06.123Z,6.44
2019-03-25T02:15:10.590Z,6.68
2019-03-25T02:20:25.538Z,6.81
2019-03-25T02:25:25.454Z,6.83
2019-03-25T02:30:25.924Z,6.71
2019-03-25T02:35:29.750Z,6.58
2019-03-25T02:40:33.898Z,6.55
2019-03-25T02:45:37.927Z,6.46
2019-03-25T02:50:41.703Z,6.43
2019-03-25T02:55:45.650Z,6.42
2019-03-25T03:00:49.421Z,6.41
2019-03-25T03:05:53.228Z,6.33
2019-03-25T03:10:56.994Z,6.33
2019-03-25T03:16:00.738Z,6.31
2019-03-25T03:21:04.487Z,6.28
2019-03-25T03:26:08.270Z,6.19
2019-03-25T03:31:12.058Z,6.14
2019-03-25T03:36:16.052Z,6.16
2019-03-25T03:41:19.850Z,6.08
2019-03-25T03:46:23.696Z,6.10
2019-03-25T03:51:27.536Z,6.12
2019-03-25T03:56:32.367Z,6.10
2019-03-25T04:01:36.089Z,6.05
2019-03-25T04:06:39.985Z,6.07
2019-03-25T04:11:43.766Z,6.04
2019-03-25T04:16:47.502Z,6.03
2019-03-25T04:21:51.655Z,6.05
2019-03-25T04:26:55.478Z,6.11
2019-03-25T04:31:59.256Z,6.26
2019-03-25T04:37:03.053Z,6.38
2019-03-25T04:42:06.844Z,6.07
2019-03-25T04:47:11.179Z,6.25
2019-03-25T04:52:14.913Z,6.07
2019-03-25T04:57:18.739Z,5.92
2019-03-25T05:02:22.549Z,5.93
2019-03-25T05:07:26.538Z,5.98
2019-03-25T05:12:30.709Z,6.02
2019-03-25T05:17:34.488Z,5.95
2019-03-25T05:22:38.422Z,6.42
2019-03-25T05:27:42.163Z,6.68
2019-03-25T05:32:45.912Z,6.42
2019-03-25T05:37:49.726Z,6.37
2019-03-25T05:42:54.072Z,6.18
2019-03-25T05:47:57.973Z,6.08
2019-03-25T05:53:01.767Z,6.03
2019-03-25T05:58:05.623Z,6.07
2019-03-25T06:03:09.376Z,6.12
2019-03-25T06:08:13.393Z,6.20
2019-03-25T06:13:17.235Z,6.30
2019-03-25T06:18:21.014Z,6.31
2019-03-25T06:23:24.976Z,6.45
2019-03-25T06:28:28.786Z,6.42
2019-03-25T06:33:32.758Z,6.41
2019-03-25T06:38:36.524Z,6.49
2019-03-25T06:43:40.314Z,6.47
2019-03-25T06:48:44.098Z,6.69
2019-03-25T06:53:47.921Z,6.83
2019-03-25T06:58:51.766Z,6.87
2019-03-25T07:03:55.866Z,7.26
2019-03-25T07:08:59.802Z,7.20
2019-03-25T07:14:03.900Z,7.23
2019-03-25T07:19:07.786Z,7.39
2019-03-25T07:24:11.639Z,7.48
2019-03-25T07:29:15.420Z,7.24
2019-03-25T07:34:19.306Z,7.26
2019-03-25T07:39:23.055Z,7.86
2019-03-25T07:44:26.831Z,7.93
2019-03-25T07:49:30.590Z,7.51
2019-03-25T07:54:34.649Z,7.46
2019-03-25T07:59:38.600Z,7.36
2019-03-25T08:04:42.508Z,7.39
2019-03-25T08:09:46.778Z,7.35
2019-03-25T08:14:50.792Z,7.52
2019-03-25T08:19:54.652Z,7.27
2019-03-25T08:24:58.421Z,6.95
2019-03-25T08:30:02.201Z,6.70
2019-03-25T08:35:06.534Z,6.66
2019-03-25T08:40:11.137Z,7.00
2019-03-25T08:45:15.258Z,7.37
2019-03-25T08:50:19.105Z,7.36
2019-03-25T08:55:22.873Z,7.65
2019-03-25T09:00:26.683Z,8.30
2019-03-25T09:05:30.410Z,8.40
2019-03-25T09:10:34.185Z,9.07
2019-03-25T09:15:37.951Z,9.30
2019-03-25T09:20:41.928Z,9.57
2019-03-25T09:25:45.670Z,9.60
2019-03-25T09:31:19.951Z,9.62
2019-03-25T09:36:24.505Z,9.66
2019-03-25T09:41:28.346Z,9.63
2019-03-25T09:46:32.134Z,10.67
2019-03-25T09:51:35.965Z,10.04
2019-03-25T09:56:39.729Z,9.79
2019-03-25T10:01:43.902Z,9.43
2019-03-25T10:06:48.120Z,8.80
2019-03-25T10:11:51.913Z,8.62
2019-03-25T10:16:55.701Z,7.39
2019-03-25T10:21:59.568Z,6.68
2019-03-25T10:27:03.492Z,6.46
2019-03-25T10:32:07.605Z,6.84
2019-03-25T10:37:11.605Z,7.66
2019-03-25T10:42:15.340Z,8.01
2019-03-25T10:47:19.114Z,7.99
2019-03-25T10:52:22.893Z,8.22
2019-03-25T10:57:26.724Z,8.13
2019-03-25T11:02:30.494Z,8.08
2019-03-25T11:07:34.451Z,7.94
2019-03-25T11:12:38.393Z,8.67
2019-03-25T11:17:42.643Z,8.71
2019-03-25T11:22:46.518Z,9.16
2019-03-25T11:27:54.421Z,9.36
2019-03-25T11:32:56.014Z,9.92
2019-03-25T11:37:59.807Z,10.10
2019-03-25T11:43:03.605Z,10.37
2019-03-25T11:48:07.371Z,9.66
2019-03-25T11:53:11.226Z,9.55
2019-03-25T11:58:15.015Z,9.50
2019-03-25T12:03:18.994Z,9.71
2019-03-25T12:08:22.787Z,10.02
2019-03-25T12:13:26.714Z,9.84
2019-03-25T12:18:30.526Z,9.83
2019-03-25T12:23:34.449Z,9.28
2019-03-25T12:28:38.591Z,9.40
2019-03-25T12:33:42.863Z,8.96
2019-03-25T12:38:46.626Z,8.58
2019-03-25T12:43:50.453Z,8.37
2019-03-25T12:48:54.337Z,8.21
2019-03-25T12:53:58.219Z,7.75
2019-03-25T12:59:03.031Z,7.15
2019-03-25T13:04:07.158Z,6.26
2019-03-25T13:09:10.953Z,6.24
2019-03-25T13:14:14.813Z,6.13
2019-03-25T13:19:18.740Z,6.45
2019-03-25T13:24:22.551Z,6.37
2019-03-25T13:29:26.324Z,6.29
2019-03-25T13:34:30.560Z,6.30
2019-03-25T13:39:34.384Z,6.32
2019-03-25T13:44:38.311Z,6.18
2019-03-25T13:49:42.744Z,6.12
2019-03-25T13:54:46.578Z,6.10
2019-03-25T13:59:50.446Z,6.06
2019-03-25T14:04:54.333Z,6.70
2019-03-25T14:09:58.217Z,6.32
2019-03-25T14:15:02.199Z,6.53
2019-03-25T14:20:08.277Z,6.40
2019-03-25T14:25:12.152Z,6.26
2019-03-25T14:30:16.414Z,6.86
2019-03-25T14:35:20.226Z,7.06
2019-03-25T14:40:25.534Z,6.35
2019-03-25T14:45:29.716Z,5.99
2019-03-25T14:50:33.668Z,6.40
2019-03-25T14:55:37.438Z,6.49
2019-03-25T15:00:41.232Z,7.01
2019-03-25T15:05:45.222Z,6.96
2019-03-25T15:10:53.459Z,6.22
2019-03-25T15:15:54.786Z,6.30
2019-03-25T15:20:58.626Z,6.03
2019-03-25T15:26:02.365Z,6.26
2019-03-25T15:31:06.217Z,6.51
2019-03-25T15:36:09.971Z,6.06
2019-03-25T15:41:13.887Z,6.21
2019-03-25T15:46:17.646Z,6.49
2019-03-25T15:51:21.638Z,6.53
2019-03-25T15:56:25.494Z,6.24
2019-03-25T16:01:29.264Z,6.50
2019-03-25T16:06:33.110Z,6.09
2019-03-25T16:11:36.866Z,5.37
2019-03-25T16:16:40.628Z,4.83
2019-03-25T16:21:44.376Z,4.68
2019-03-25T16:26:48.144Z,4.57
2019-03-25T16:31:51.940Z,4.58
2019-03-25T16:36:55.742Z,4.46
2019-03-25T16:41:59.655Z,4.48
2019-03-25T16:47:03.513Z,4.41
2019-03-25T16:52:07.295Z,4.34
2019-03-25T16:57:11.117Z,4.40
2019-03-25T17:02:15.664Z,4.38
2019-03-25T17:07:19.984Z,4.53
2019-03-25T17:12:23.742Z,4.49
2019-03-25T17:17:27.653Z,4.42
2019-03-25T17:22:52.846Z,4.41
2019-03-25T17:27:57.297Z,4.27
2019-03-25T17:33:01.665Z,4.41
2019-03-25T17:38:05.567Z,4.30
2019-03-25T17:43:09.327Z,4.24
2019-03-25T17:48:13.206Z,4.40
2019-03-25T17:53:16.983Z,4.36
2019-03-25T17:58:20.789Z,4.22
2019-03-25T18:03:24.628Z,4.39
2019-03-25T18:08:28.477Z,4.34
2019-03-25T18:13:32.312Z,4.39
2019-03-25T18:18:36.070Z,4.42
2019-03-25T18:23:39.859Z,4.44
2019-03-25T18:28:43.681Z,4.47
2019-03-25T18:33:47.453Z,4.45
2019-03-25T18:38:51.318Z,4.52
2019-03-25T18:43:55.074Z,4.57
2019-03-25T18:48:58.958Z,4.51
2019-03-25T18:54:02.832Z,4.50
2019-03-25T18:59:06.612Z,4.47
2019-03-25T19:04:10.455Z,4.46
2019-03-25T19:09:14.251Z,4.35
2019-03-25T19:14:18.187Z,4.41
2019-03-25T19:19:21.978Z,4.43
2019-03-25T19:24:26.161Z,4.29
2019-03-25T19:29:29.998Z,4.22
2019-03-25T19:34:33.867Z,4.29
2019-03-25T19:39:37.690Z,4.31
2019-03-25T19:44:41.660Z,4.30
2019-03-25T19:49:45.652Z,4.29
2019-03-25T19:54:49.772Z,4.28
2019-03-25T19:59:53.586Z,4.24
2019-03-25T20:04:57.517Z,4.28
2019-03-25T20:10:01.335Z,4.29
2019-03-25T20:15:06.223Z,4.29
2019-03-25T20:20:10.321Z,4.28
2019-03-25T20:25:14.214Z,4.27
2019-03-25T20:30:18.661Z,4.33
2019-03-25T20:35:22.504Z,4.29
2019-03-25T20:40:26.398Z,4.32
2019-03-25T20:45:30.236Z,4.35
2019-03-25T20:50:34.226Z,4.32
2019-03-25T20:55:38.099Z,4.32
2019-03-25T21:00:55.838Z,4.36
2019-03-25T21:05:59.704Z,4.28
2019-03-25T21:11:03.712Z,4.20
2019-03-25T21:16:07.896Z,4.10
2019-03-25T21:21:11.876Z,4.11
2019-03-25T21:26:15.961Z,4.07
2019-03-25T21:31:19.916Z,4.06
2019-03-25T21:36:23.883Z,4.07
2019-03-25T21:41:27.826Z,4.08
2019-03-25T21:46:31.828Z,4.05
2019-03-25T21:51:35.744Z,4.06
2019-03-25T21:56:39.770Z,4.05
2019-03-25T22:01:43.702Z,3.98
2019-03-25T22:06:47.460Z,4.03
2019-03-25T22:11:52.288Z,4.06
2019-03-25T22:16:56.115Z,4.01
2019-03-25T22:21:59.984Z,4.01
2019-03-25T22:27:03.765Z,4.02
2019-03-25T22:32:07.946Z,4.00
2019-03-25T22:37:11.776Z,4.00
2019-03-25T22:42:15.580Z,4.04
2019-03-25T22:47:19.411Z,3.96
2019-03-25T22:52:23.342Z,3.90
2019-03-25T22:57:27.224Z,3.90
2019-03-25T23:02:31.539Z,3.91
2019-03-25T23:07:35.290Z,3.90
2019-03-25T23:12:39.163Z,3.91
2019-03-25T23:17:43.006Z,3.85
2019-03-25T23:22:46.761Z,3.87
2019-03-25T23:27:50.603Z,3.72
2019-03-25T23:32:54.444Z,3.77
2019-03-25T23:37:58.470Z,3.66
2019-03-25T23:43:02.269Z,3.63
2019-03-25T23:48:06.509Z,3.66
2019-03-25T23:53:10.268Z,3.60
2019-03-25T23:58:14.028Z,3.58
